• Join FlightAware (Why Join?)
  • Login
  • US Flag 
09:52AM EDT


 

Airport Tracker/Info


-or-


 

Live Flight TrackerFlight Track Log ✈ N180KT ✈ 09-Jul-2013 ✈ KRYY - KJWN

Flight Track Log - Related Links

Times and Time Zones

All times are in EDT time to prevent confusion due to time zone crossing. See the N180KT flight status page for this flight to view local times or setup timezone preferences in your user account.

Time Position Orientation Groundspeed Altitude Reporting Facility
EDT Latitude Longitude Course Direction KTS MPH feet Rate Location/Type
09:59AM 34.0667 -84.6333 40° Northeast 136 157 2,800  Level Atlanta TRACON
10:00AM 34.1183 -84.6386 355° North 156 180 3,500 660 Climbing Atlanta Center
10:01AM 34.1581 -84.6414 357° North 151 174 4,300 720 Climbing Atlanta Center
10:02AM 34.1978 -84.6442 357° North 140 161 5,000 720 Climbing Atlanta Center
10:03AM 34.2353 -84.6469 356° North 140 161 5,800 600 Climbing Atlanta Center
10:04AM 34.2138 -84.5575 29° Northeast  Level FlightAware Approximate
10:04AM 34.2706 -84.6697 332° Northwest 140 161 6,300  Level Atlanta Center
10:05AM 34.2515 -84.5318 40° Northeast  Level FlightAware Approximate
10:05AM 34.2975 -84.7000 317° Northwest 135 155 6,700  Level Atlanta Center
10:06AM 34.3244 -84.7306 317° Northwest 140 161 7,100 420 Climbing Atlanta Center
10:07AM 34.3556 -84.7608 321° Northwest 140 161 7,600 420 Climbing Atlanta Center
10:08AM 34.3825 -84.7939 315° West 145 167 8,000 180 Climbing Atlanta Center
10:09AM 34.4136 -84.8294 317° Northwest 145 167 8,000  Level Atlanta Center
10:10AM 34.4469 -84.8650 319° Northwest 145 167 8,000  Level Atlanta Center
10:11AM 34.4819 -84.9031 318° Northwest 152 175 8,000  Level Atlanta Center
10:12AM 34.5111 -84.9361 317° Northwest 152 175 8,000  Level Atlanta Center
10:13AM 34.5483 -84.9769 318° Northwest 152 175 8,000  Level Atlanta Center
10:14AM 34.5814 -85.0125 318° Northwest 157 181 8,000  Level Atlanta Center
10:16AM 34.6165 -85.0527 317° Northwest  Level FlightAware Approximate
10:23AM 34.8209 -85.2877 317° Northwest  Level FlightAware Approximate
10:24AM 34.8501 -85.3213 317° Northwest  Level FlightAware Approximate
10:25AM 34.8793 -85.3550 317° Northwest  Level FlightAware Approximate
10:26AM 34.9084 -85.3887 317° Northwest  Level FlightAware Approximate
10:27AM 34.9375 -85.4225 317° Northwest  Level FlightAware Approximate
10:28AM 34.9667 -85.4562 316° Northwest  Level FlightAware Approximate
10:29AM 34.9958 -85.4900 316° Northwest  Level FlightAware Approximate
10:29AM 35.0519 -85.5503 316° Northwest 160 184 8,000  Level Memphis Center
10:30AM 35.0249 -85.5238 316° Northwest  Level FlightAware Approximate
10:30AM 35.0844 -85.5867 318° Northwest 160 184 8,000  Level Memphis Center
10:31AM 35.0540 -85.5576 316° Northwest  Level FlightAware Approximate
10:31AM 35.1194 -85.6303 314° West 160 184 8,000  Level Memphis Center
10:32AM 35.0831 -85.5915 316° Northwest  Level FlightAware Approximate
10:32AM 35.1544 -85.6689 318° Northwest 160 184 8,000  Level Memphis Center
10:33AM 35.1122 -85.6254 316° Northwest  Level FlightAware Approximate
10:33AM 35.1872 -85.7078 316° Northwest 160 184 8,000  Level Memphis Center
10:34AM 35.2197 -85.7439 318° Northwest 160 184 8,000  Level Memphis Center
10:35AM 35.2525 -85.7828 316° Northwest 160 184 8,000  Level Memphis Center
10:36AM 35.2872 -85.8192 319° Northwest 160 184 8,000  Level Memphis Center
10:37AM 35.3200 -85.8581 316° Northwest 160 184 8,000  Level Memphis Center
10:38AM 35.3528 -85.8994 314° West 160 184 8,000  Level Memphis Center
10:39AM 35.3856 -85.9386 316° Northwest 160 184 8,000  Level Memphis Center
10:40AM 35.4203 -85.9775 318° Northwest 160 184 8,000 -60 Level Memphis Center
10:41AM 35.4550 -86.0189 316° Northwest 160 184 7,900 -300 Descending Memphis Center
10:42AM 35.4897 -86.0581 317° Northwest 160 184 7,400 -480 Descending Memphis Center
10:43AM 35.5267 -86.1019 316° Northwest 165 190 7,000 -480 Descending Memphis Center
10:44AM 35.5636 -86.1433 318° Northwest 170 196 6,500 -540 Descending Memphis Center
10:45AM 35.5983 -86.1850 316° Northwest 170 196 6,000 -300 Descending Memphis Center
10:46AM 35.6353 -86.2292 316° Northwest 175 201 6,000  Level Memphis Center
10:47AM 35.6658 -86.2711 312° West 169 194 6,000  Level Memphis Center
10:48AM 35.6939 -86.3031 317° Northwest 163 188 6,000 -300 Level Memphis Center
10:49AM 35.7061 -86.3586 285° West 153 176 5,500 -540 Descending Memphis Center
10:50AM 35.7183 -86.4142 285° West 174 200 5,000 -540 Descending Memphis Center
10:51AM 35.7328 -86.4697 288° West 175 201 4,500 -540 Descending Memphis Center
10:52AM 35.7444 -86.5128 288° West 152 175 4,000 -300 Descending Memphis Center
10:53AM 35.7519 -86.5558 282° West 132 152 4,000  Level Memphis Center
10:54AM 35.7661 -86.6089 288° West 139 160 4,000  Level Memphis Center
10:55AM 35.7781 -86.6544 288° West 145 167 4,000  Level Memphis Center
10:56AM 35.7917 -86.6947 293° West 145 167 4,000  Level Memphis Center
10:57AM 35.8217 -86.7242 321° Northwest 131 151 4,000  Level Memphis Center
10:59AM 35.8833 -86.8000 315° West 145 167 4,000 -60 Level Nashville TRACON
11:00AM 35.9167 -86.8167 338° Northwest 146 168 3,900 -360 Descending Nashville TRACON
11:01AM 35.9333 -86.8500 302° West 141 162 3,400 -540 Descending Nashville TRACON
11:02AM 35.9667 -86.8833 321° Northwest 125 144 2,900 -240 Descending Nashville TRACON
11:03AM 36.0000 -86.8833 360° North 136 157 3,000  Climbing Nashville TRACON
11:04AM 36.0333 -86.8833 360° North 123 142 3,000  Level Nashville TRACON